Time;durP1;ratioP1;P1;durP2;ratioP2;P2;SDS_P1;SDS_P2;PMS_P1;PMS_P2;Temp;Humidity;BMP_temperature;BMP_pressure;BME280_temperature;BME280_humidity;BME280_pressure;Samples;Min_cycle;Max_cycle;Signal;HPM_P1;HPM_P2
2023/10/27 00:01:46;;;;;;;;;2.33;2.00;;;;;23.80;45.38;99085.25;4843264;29;45516;-77
2023/10/27 00:04:11;;;;;;;;;3.00;1.00;;;;;23.90;45.39;99106.72;4843405;29;45383;-77
2023/10/27 00:06:37;;;;;;;;;2.67;2.67;;;;;23.85;45.50;99102.09;4841369;29;45453;-78
2023/10/27 00:09:02;;;;;;;;;4.00;3.00;;;;;23.77;45.30;99078.56;4842990;29;45517;-77
2023/10/27 00:11:28;;;;;;;;;2.00;2.00;;;;;23.77;45.10;99077.75;4842932;29;45491;-77
2023/10/27 00:13:55;;;;;;;;;2.00;2.00;;;;;23.57;45.16;99049.75;4843219;29;45456;-77
2023/10/27 00:16:21;;;;;;;;;2.67;2.67;;;;;23.73;45.35;99077.44;4843326;29;45627;-78
2023/10/27 00:18:46;;;;;;;;;2.00;1.00;;;;;23.71;45.52;99082.97;4842948;29;46100;-78
2023/10/27 00:21:12;;;;;;;;;2.33;2.00;;;;;23.88;45.26;99105.31;4842888;29;45459;-77
2023/10/27 00:23:37;;;;;;;;;2.00;2.00;;;;;23.88;45.46;99106.13;4842736;29;45566;-77
2023/10/27 00:26:02;;;;;;;;;3.33;2.00;;;;;23.78;45.16;99093.47;4843003;29;45399;-78
2023/10/27 00:28:29;;;;;;;;;3.00;1.67;;;;;23.88;45.43;99113.28;4842848;29;46090;-78
2023/10/27 00:30:54;;;;;;;;;4.00;1.00;;;;;23.59;45.49;99067.06;4843200;29;45468;-77
2023/10/27 00:33:20;;;;;;;;;2.00;2.00;;;;;23.87;45.26;99117.78;4843024;29;45373;-77
2023/10/27 00:35:49;;;;;;;;;3.00;2.33;;;;;23.87;45.34;99128.41;4843070;29;45377;-78
2023/10/27 00:38:16;;;;;;;;;3.00;2.33;;;;;23.88;45.47;99110.63;4842767;29;46141;-78
2023/10/27 00:40:41;;;;;;;;;2.00;2.00;;;;;23.50;45.27;99056.00;4842453;29;45286;-78
2023/10/27 00:43:06;;;;;;;;;3.00;2.00;;;;;23.85;45.25;99106.59;4842862;29;45341;-78
2023/10/27 00:45:32;;;;;;;;;3.00;3.00;;;;;23.81;45.08;99100.94;4842882;29;47078;-78
2023/10/27 00:47:59;;;;;;;;;1.00;1.00;;;;;23.83;45.06;99111.34;4841370;29;47178;-78
2023/10/27 00:50:24;;;;;;;;;2.33;2.33;;;;;23.68;44.89;99080.00;4842650;29;45251;-78
2023/10/27 00:52:50;;;;;;;;;3.00;2.00;;;;;23.87;45.11;99114.31;4842794;29;45427;-79
2023/10/27 00:55:16;;;;;;;;;5.67;3.33;;;;;23.88;45.21;99110.63;4842397;29;45391;-78
2023/10/27 00:57:42;;;;;;;;;2.00;2.00;;;;;23.88;44.85;99111.44;4842495;29;47080;-77
2023/10/27 01:00:08;;;;;;;;;4.00;3.00;;;;;23.88;45.20;99111.44;4842689;29;45445;-77
2023/10/27 01:02:33;;;;;;;;;3.00;3.00;;;;;23.56;45.16;99062.22;4842588;29;45399;-77
2023/10/27 01:04:59;;;;;;;;;1.67;1.67;;;;;23.85;45.44;99112.72;4842485;29;45397;-77
2023/10/27 01:07:24;;;;;;;;;8.67;3.33;;;;;23.88;45.09;99122.06;4842342;29;46970;-77
2023/10/27 01:09:50;;;;;;;;;4.00;2.33;;;;;23.81;45.15;99108.13;4842156;29;45394;-78
2023/10/27 01:12:15;;;;;;;;;2.00;2.00;;;;;23.83;44.96;99106.03;4842660;29;45404;-78
2023/10/27 01:14:41;;;;;;;;;3.00;2.00;;;;;23.77;45.45;99107.78;4842587;29;45528;-78
2023/10/27 01:17:06;;;;;;;;;2.00;2.00;;;;;23.79;45.29;99102.22;4842330;29;46543;-78
2023/10/27 01:19:31;;;;;;;;;2.00;2.00;;;;;23.85;45.03;99112.72;4845596;29;45441;-78
2023/10/27 01:21:57;;;;;;;;;2.00;2.00;;;;;23.71;44.94;99085.63;4845454;29;45349;-77
2023/10/27 01:24:23;;;;;;;;;1.00;1.00;;;;;23.65;45.62;99073.31;4843688;29;45473;-77
2023/10/27 01:26:49;;;;;;;;;4.00;2.00;;;;;23.88;45.55;99108.78;4845344;29;46181;-78
2023/10/27 01:29:15;;;;;;;;;3.00;2.00;;;;;23.54;45.16;99052.88;4844077;29;45365;-78
2023/10/27 01:31:40;;;;;;;;;3.67;2.00;;;;;23.84;44.96;99111.09;4845536;29;45281;-78
2023/10/27 01:34:06;;;;;;;;;5.33;3.00;;;;;23.74;45.04;99089.66;4845671;29;45307;-76
2023/10/27 01:36:31;;;;;;;;;2.00;2.00;;;;;23.81;45.26;99100.16;4845257;29;46012;-77
2023/10/27 01:38:56;;;;;;;;;2.00;2.00;;;;;23.75;45.29;99091.28;4844954;29;45297;-78
2023/10/27 01:41:22;;;;;;;;;3.00;1.00;;;;;23.86;44.88;99108.22;4845526;29;45477;-78
2023/10/27 01:43:47;;;;;;;;;4.00;2.67;;;;;23.70;45.27;99080.56;4845166;29;45376;-77
2023/10/27 01:46:12;;;;;;;;;3.33;2.00;;;;;23.71;45.11;99090.94;4845147;29;46288;-77
2023/10/27 01:48:37;;;;;;;;;2.00;2.00;;;;;23.76;45.21;99102.72;4845112;29;45383;-77
2023/10/27 01:51:03;;;;;;;;;3.00;2.00;;;;;23.75;45.02;99104.56;4845210;29;45435;-77
2023/10/27 01:53:28;;;;;;;;;4.00;2.00;;;;;23.69;44.91;99094.84;4845013;29;45277;-77
2023/10/27 01:55:54;;;;;;;;;1.33;1.00;;;;;23.57;44.91;99076.31;4844876;29;46316;-77
2023/10/27 01:58:19;;;;;;;;;2.00;2.00;;;;;23.85;44.80;99122.53;4845104;29;45520;-77
2023/10/27 02:00:44;;;;;;;;;1.00;1.00;;;;;23.85;45.18;99123.34;4845190;29;45599;-77
2023/10/27 02:03:10;;;;;;;;;2.67;1.33;;;;;23.86;45.19;99126.81;4845180;29;45340;-77
2023/10/27 02:05:42;;;;;;;;;1.00;1.00;;;;;23.71;44.81;99106.84;4845019;29;45309;-76
2023/10/27 02:08:08;;;;;;;;;2.00;2.00;;;;;23.81;45.04;99113.44;4844343;29;45389;-78
2023/10/27 02:10:33;;;;;;;;;1.00;1.00;;;;;23.80;45.21;99114.47;4844982;29;45482;-77
2023/10/27 02:12:59;;;;;;;;;1.00;1.00;;;;;23.70;44.84;99099.94;4844954;29;45531;-77
2023/10/27 02:15:24;;;;;;;;;3.00;1.67;;;;;23.86;44.89;99129.47;4844704;29;46280;-77
2023/10/27 02:17:49;;;;;;;;;3.00;1.00;;;;;23.77;45.04;99106.97;4844717;29;45502;-77
2023/10/27 02:20:15;;;;;;;;;2.00;1.00;;;;;23.85;44.92;99114.56;4844973;29;45349;-77
2023/10/27 02:22:40;;;;;;;;;2.00;2.00;;;;;23.76;45.08;99097.41;4844365;29;45337;-77
2023/10/27 02:25:06;;;;;;;;;2.67;2.67;;;;;23.72;45.40;99086.44;4844425;29;45447;-77
2023/10/27 02:27:31;;;;;;;;;1.00;1.00;;;;;23.65;44.94;99075.94;4844761;29;45339;-77
2023/10/27 02:29:57;;;;;;;;;6.33;2.33;;;;;23.75;45.18;99096.59;4844487;29;45888;-78
2023/10/27 02:32:22;;;;;;;;;2.00;2.00;;;;;23.84;45.01;99110.28;4844845;29;45360;-77
2023/10/27 02:34:47;;;;;;;;;1.00;1.00;;;;;23.84;45.39;99105.78;4844625;29;45219;-78
2023/10/27 02:37:12;;;;;;;;;1.33;1.00;;;;;23.84;45.16;99102.31;4844385;29;45212;-78
2023/10/27 02:39:39;;;;;;;;;1.00;1.00;;;;;23.72;44.68;99097.88;4845234;29;45464;-78
2023/10/27 02:42:05;;;;;;;;;2.67;1.00;;;;;23.76;44.88;99094.75;4845069;29;45465;-77
2023/10/27 02:44:30;;;;;;;;;3.67;2.00;;;;;23.83;45.01;99108.69;4844305;29;45658;-77
2023/10/27 02:46:55;;;;;;;;;3.67;2.00;;;;;23.54;45.07;99051.03;4844452;29;45343;-77
2023/10/27 02:49:21;;;;;;;;;1.67;1.67;;;;;23.58;44.77;99057.47;4845045;29;45322;-77
2023/10/27 02:51:46;;;;;;;;;1.00;1.00;;;;;23.82;44.91;99089.28;4844762;29;45303;-76
2023/10/27 02:54:11;;;;;;;;;2.33;1.00;;;;;23.83;44.97;99095.41;4844300;29;45358;-78
2023/10/27 02:56:37;;;;;;;;;2.00;2.00;;;;;23.78;44.74;99097.97;4845396;29;45915;-78
2023/10/27 02:59:03;;;;;;;;;1.33;1.33;;;;;23.67;45.27;99075.72;4844238;29;45386;-78
2023/10/27 03:01:28;;;;;;;;;2.00;2.00;;;;;23.66;44.75;99074.91;4844228;29;45427;-77
2023/10/27 03:03:53;;;;;;;;;2.00;1.00;;;;;23.69;44.88;99074.44;4843927;29;46541;-78
2023/10/27 03:06:19;;;;;;;;;2.00;2.00;;;;;23.65;44.86;99067.19;4843444;29;51097;-78
2023/10/27 03:08:44;;;;;;;;;3.00;1.67;;;;;23.61;44.98;99067.63;4844064;29;45351;-78
2023/10/27 03:11:10;;;;;;;;;1.33;1.33;;;;;23.81;44.47;99095.63;4844176;29;45651;-79
2023/10/27 03:13:35;;;;;;;;;1.33;1.33;;;;;23.74;44.85;99090.47;4843921;29;45801;-78
2023/10/27 03:16:02;;;;;;;;;2.00;2.00;;;;;23.65;44.69;99078.59;4844006;29;45357;-78
2023/10/27 03:18:28;;;;;;;;;2.00;1.67;;;;;23.76;44.50;99092.09;4844077;29;45313;-78
2023/10/27 03:20:57;;;;;;;;;2.00;1.67;;;;;23.81;44.88;99103.59;4843778;29;45557;-78
2023/10/27 03:23:27;;;;;;;;;1.00;1.00;;;;;23.82;44.81;99099.91;4843594;29;45757;-77
2023/10/27 03:25:53;;;;;;;;;3.67;2.33;;;;;23.72;44.97;99086.44;4842421;29;45447;-78
2023/10/27 03:28:22;;;;;;;;;2.00;1.00;;;;;23.71;45.19;99085.63;4843594;29;45375;-78
2023/10/27 03:30:48;;;;;;;;;1.33;1.00;;;;;23.46;44.90;99054.03;4843821;29;45387;-79
2023/10/27 03:33:14;;;;;;;;;1.00;1.00;;;;;23.75;44.80;99096.59;4843506;29;47491;-78
2023/10/27 03:35:42;;;;;;;;;1.00;1.00;;;;;23.72;44.99;99086.44;4843266;29;45381;-78
2023/10/27 03:38:09;;;;;;;;;0.33;0.33;;;;;23.72;44.88;99081.94;4843648;29;45394;-78
2023/10/27 03:40:34;;;;;;;;;5.00;1.67;;;;;23.82;44.72;99096.44;4842732;29;45405;-79
2023/10/27 03:42:59;;;;;;;;;1.67;1.67;;;;;23.79;44.84;99094.25;4843363;29;47585;-78
2023/10/27 03:45:25;;;;;;;;;2.00;2.00;;;;;23.69;44.70;99090.34;4843534;29;45286;-78
2023/10/27 03:47:50;;;;;;;;;0.00;0.00;;;;;23.79;44.90;99111.00;4843070;29;45318;-78
2023/10/27 03:50:16;;;;;;;;;2.00;2.00;;;;;23.81;44.53;99103.59;4843698;29;45325;-78
2023/10/27 03:52:41;;;;;;;;;1.67;1.67;;;;;23.71;44.76;99106.84;4843231;29;47760;-78
2023/10/27 03:55:07;;;;;;;;;1.00;1.00;;;;;23.80;44.96;99115.28;4843422;29;45341;-78
2023/10/27 03:57:36;;;;;;;;;1.33;1.33;;;;;23.73;44.98;99110.09;4843404;29;45417;-78
2023/10/27 04:00:03;;;;;;;;;1.00;1.00;;;;;23.81;44.92;99121.41;4843451;29;45578;-78
2023/10/27 04:02:28;;;;;;;;;1.00;0.00;;;;;23.71;45.05;99103.38;4842770;29;47065;-78
2023/10/27 04:04:53;;;;;;;;;2.67;1.00;;;;;23.73;44.81;99114.59;4843338;29;45361;-78
2023/10/27 04:07:19;;;;;;;;;1.00;1.00;;;;;23.79;44.78;99121.63;4843394;29;45288;-78
2023/10/27 04:09:44;;;;;;;;;1.00;1.00;;;;;23.80;44.61;99119.78;4843267;29;45274;-78
2023/10/27 04:12:10;;;;;;;;;2.33;2.33;;;;;23.79;44.73;99121.63;4843256;29;46441;-79
2023/10/27 04:14:35;;;;;;;;;2.67;2.00;;;;;23.68;44.73;99101.22;4843301;29;45351;-79
2023/10/27 04:17:00;;;;;;;;;1.00;1.00;;;;;23.80;44.88;99119.78;4842932;29;45437;-78
2023/10/27 04:19:25;;;;;;;;;3.67;1.00;;;;;23.72;44.74;99107.66;4843232;29;45440;-78
2023/10/27 04:21:51;;;;;;;;;1.00;1.00;;;;;23.69;45.12;99102.81;4842886;29;45440;-78
2023/10/27 04:24:17;;;;;;;;;2.00;1.00;;;;;23.67;44.45;99111.03;4842810;29;45456;-77
2023/10/27 04:26:42;;;;;;;;;2.67;1.00;;;;;23.79;45.04;99123.47;4843132;29;45620;-79
2023/10/27 04:29:07;;;;;;;;;1.33;1.00;;;;;23.67;44.32;99094.28;4842955;29;45306;-79
2023/10/27 04:31:33;;;;;;;;;1.33;1.00;;;;;23.64;44.57;99103.53;4842551;29;46769;-78
2023/10/27 04:33:58;;;;;;;;;1.00;1.00;;;;;23.63;44.65;99096.59;4842961;29;45431;-79
2023/10/27 04:36:24;;;;;;;;;1.00;1.00;;;;;23.65;44.98;99107.81;4842944;29;45293;-79
2023/10/27 04:38:50;;;;;;;;;1.33;1.33;;;;;23.80;44.93;99127.75;4842967;29;45457;-78
2023/10/27 04:41:15;;;;;;;;;4.00;1.67;;;;;23.73;44.72;99120.69;4842852;29;45320;-78
2023/10/27 04:43:41;;;;;;;;;2.67;2.00;;;;;23.79;45.01;99134.91;4842709;29;45232;-78
2023/10/27 04:46:08;;;;;;;;;1.33;1.33;;;;;23.66;44.72;99122.69;4842713;29;45213;-78
2023/10/27 04:48:33;;;;;;;;;0.00;0.00;;;;;23.79;44.81;99129.59;4842779;29;45292;-78
2023/10/27 04:51:04;;;;;;;;;1.00;1.00;;;;;23.78;44.81;99133.31;4841302;29;46971;-78
2023/10/27 04:53:31;;;;;;;;;1.00;1.00;;;;;23.68;44.75;99117.94;4845897;29;45473;-78
2023/10/27 04:55:57;;;;;;;;;0.33;0.33;;;;;23.78;44.69;99135.97;4845928;29;45292;-79
2023/10/27 04:58:22;;;;;;;;;1.00;1.00;;;;;23.78;44.94;99132.50;4845896;29;45409;-79
2023/10/27 05:00:47;;;;;;;;;1.00;1.00;;;;;23.78;44.64;99137.81;4844049;29;48315;-79
2023/10/27 05:03:13;;;;;;;;;1.00;1.00;;;;;23.77;44.95;99136.97;4845659;29;51658;-78
2023/10/27 05:05:38;;;;;;;;;2.33;1.00;;;;;23.65;45.01;99117.63;4845807;29;45388;-78
2023/10/27 05:08:04;;;;;;;;;3.00;2.00;;;;;23.77;44.84;99128.22;4845708;29;45227;-79
2023/10/27 05:10:29;;;;;;;;;2.00;1.00;;;;;23.76;45.08;99124.75;4845772;29;45830;-78
2023/10/27 05:12:55;;;;;;;;;0.33;0.33;;;;;23.60;44.82;99103.19;4845465;29;51339;-79
2023/10/27 05:15:20;;;;;;;;;1.33;1.00;;;;;23.74;44.73;99118.84;4845499;29;45419;-78
2023/10/27 05:17:46;;;;;;;;;2.00;2.00;;;;;23.75;44.62;99125.78;4844417;29;45372;-78
2023/10/27 05:20:12;;;;;;;;;2.00;2.00;;;;;23.74;44.80;99114.38;4845489;29;47269;-78
2023/10/27 05:22:37;;;;;;;;;3.33;1.33;;;;;23.36;44.79;99058.09;4845307;29;45776;-78
2023/10/27 05:25:06;;;;;;;;;4.67;1.33;;;;;23.73;44.58;99112.72;4845424;29;45332;-79
2023/10/27 05:27:32;;;;;;;;;3.00;1.00;;;;;23.73;44.66;99115.41;4845726;29;45427;-78
2023/10/27 05:29:57;;;;;;;;;1.00;1.00;;;;;23.72;44.94;99119.09;4844907;29;46050;-79
2023/10/27 05:32:22;;;;;;;;;1.00;1.00;;;;;23.77;44.57;99106.97;4845422;29;45286;-79
2023/10/27 05:34:48;;;;;;;;;1.67;0.67;;;;;23.77;44.87;99109.63;4845678;29;45328;-78
2023/10/27 05:37:13;;;;;;;;;2.00;0.67;;;;;23.63;44.57;99102.72;4845443;29;45610;-79
2023/10/27 05:39:38;;;;;;;;;1.00;1.00;;;;;23.71;44.37;99112.16;4845154;29;46499;-79
2023/10/27 05:42:04;;;;;;;;;1.00;1.00;;;;;23.77;44.56;99123.72;4845327;29;45304;-79
2023/10/27 05:44:29;;;;;;;;;2.00;2.00;;;;;23.77;44.22;99129.03;4845345;29;45346;-86
2023/10/27 05:46:55;;;;;;;;;3.00;1.00;;;;;23.66;44.47;99114.72;4848425;29;45493;-78
2023/10/27 05:49:20;;;;;;;;;1.00;0.67;;;;;23.78;44.51;99129.84;4850596;29;45332;-90
2023/10/27 05:51:47;;;;;;;;;0.67;0.67;;;;;23.60;44.59;99105.84;4843558;29;45592;-78
2023/10/27 05:54:12;;;;;;;;;3.67;1.00;;;;;23.57;44.93;99105.50;4835161;29;45313;-81
2023/10/27 05:56:37;;;;;;;;;1.67;1.67;;;;;23.79;44.92;99140.22;4837045;29;45683;-84
2023/10/27 05:59:05;;;;;;;;;0.00;0.00;;;;;23.80;45.35;99135.72;4832101;29;46175;-81
2023/10/27 06:01:30;;;;;;;;;2.00;1.00;;;;;23.80;44.75;99143.69;4834866;29;45345;-79
2023/10/27 06:03:57;;;;;;;;;0.67;0.00;;;;;23.80;45.44;99133.88;4843047;29;45848;-79
2023/10/27 06:06:23;;;;;;;;;1.00;1.00;;;;;23.71;45.41;99114.00;4843841;29;45359;-78
2023/10/27 06:08:48;;;;;;;;;1.67;1.00;;;;;23.81;45.36;99132.81;4843742;29;46975;-77
2023/10/27 06:11:14;;;;;;;;;3.33;2.00;;;;;23.70;45.08;99115.06;4843750;29;45458;-75
2023/10/27 06:13:39;;;;;;;;;3.00;1.33;;;;;23.82;45.18;99133.63;4844051;29;45365;-75
2023/10/27 06:16:05;;;;;;;;;1.33;1.00;;;;;23.81;45.19;99130.16;4843040;29;45260;-75
2023/10/27 06:18:31;;;;;;;;;1.00;1.00;;;;;23.78;45.23;99124.53;4844038;29;46576;-75
2023/10/27 06:20:56;;;;;;;;;1.00;1.00;;;;;23.64;45.17;99100.88;4841390;29;45372;-78
2023/10/27 06:23:22;;;;;;;;;2.00;1.00;;;;;23.67;44.98;99110.22;4842141;29;45271;-80
2023/10/27 06:25:47;;;;;;;;;0.00;0.00;;;;;23.81;45.68;99137.34;4844207;29;45456;-78
2023/10/27 06:28:12;;;;;;;;;0.67;0.67;;;;;23.77;45.55;99130.88;4841831;29;47281;-80
2023/10/27 06:30:38;;;;;;;;;0.67;0.00;;;;;23.65;45.07;99110.47;4843174;29;45454;-79
2023/10/27 06:33:03;;;;;;;;;1.00;1.00;;;;;23.80;45.21;99131.22;4843879;29;45386;-77
2023/10/27 06:35:29;;;;;;;;;2.00;0.67;;;;;23.81;45.24;99137.34;4843938;29;45424;-78
2023/10/27 06:37:54;;;;;;;;;0.33;0.33;;;;;23.79;44.97;99139.41;4843089;29;46052;-78
2023/10/27 06:40:19;;;;;;;;;2.00;0.67;;;;;23.80;45.02;99144.50;4857964;29;54124;-77
2023/10/27 06:42:44;;;;;;;;;0.67;0.67;;;;;23.65;45.09;99118.44;4844074;29;45349;-76
2023/10/27 06:45:10;;;;;;;;;1.67;1.00;;;;;23.82;45.13;99149.56;4844468;29;45554;-77
2023/10/27 06:47:36;;;;;;;;;2.00;1.00;;;;;23.83;45.25;99148.53;4844186;29;46465;-76
2023/10/27 06:50:05;;;;;;;;;1.00;1.00;;;;;23.82;45.04;99153.03;4844290;29;45290;-76
2023/10/27 06:52:32;;;;;;;;;1.33;1.33;;;;;23.82;45.03;99154.88;4844392;29;45350;-77
2023/10/27 06:54:57;;;;;;;;;1.00;1.00;;;;;23.68;45.60;99133.88;4844293;29;45440;-76
2023/10/27 06:57:23;;;;;;;;;1.67;1.00;;;;;23.62;45.08;99130.31;4843665;29;46966;-77
2023/10/27 06:59:48;;;;;;;;;1.00;1.00;;;;;23.81;45.04;99167.34;4844178;29;45500;-76
2023/10/27 07:02:14;;;;;;;;;1.00;1.00;;;;;23.61;45.19;99146.47;4844300;29;45321;-76
2023/10/27 07:04:39;;;;;;;;;0.00;0.00;;;;;23.81;45.19;99177.97;4844269;29;45612;-76
2023/10/27 07:07:05;;;;;;;;;3.00;2.00;;;;;23.75;45.01;99173.59;4844048;29;46928;-77
2023/10/27 07:09:31;;;;;;;;;3.33;0.00;;;;;23.67;45.12;99153.50;4843904;29;45369;-79
2023/10/27 07:11:56;;;;;;;;;1.00;1.00;;;;;23.69;45.36;99164.69;4843992;29;45403;-77
2023/10/27 07:14:22;;;;;;;;;1.00;0.67;;;;;23.70;45.41;99166.34;4842784;29;45399;-76
2023/10/27 07:16:51;;;;;;;;;2.33;1.00;;;;;23.80;45.19;99186.16;4843919;29;45719;-77
2023/10/27 07:19:18;;;;;;;;;1.67;1.67;;;;;23.80;45.58;99189.63;4843902;29;45482;-77
2023/10/27 07:21:43;;;;;;;;;1.33;0.00;;;;;23.69;45.11;99180.63;4843778;29;45244;-78
2023/10/27 07:24:09;;;;;;;;;1.00;1.00;;;;;23.81;45.30;99201.06;4842296;29;45440;-78
2023/10/27 07:26:35;;;;;;;;;0.67;0.33;;;;;23.74;44.91;99194.03;4843378;29;45343;-77
2023/10/27 07:29:00;;;;;;;;;1.00;0.67;;;;;23.81;45.25;99199.19;4843604;29;45231;-77
2023/10/27 07:31:25;;;;;;;;;2.67;1.67;;;;;23.78;44.93;99197.03;4843787;29;45259;-77
2023/10/27 07:33:51;;;;;;;;;2.00;2.00;;;;;23.77;44.98;99197.25;4843750;29;45320;-77
2023/10/27 07:36:16;;;;;;;;;0.00;0.00;;;;;23.78;45.05;99206.84;4843674;29;46532;-77
2023/10/27 07:38:42;;;;;;;;;3.00;1.00;;;;;23.71;44.75;99193.66;4842398;29;45319;-76
2023/10/27 07:41:08;;;;;;;;;1.67;0.67;;;;;23.64;45.38;99191.13;4843422;29;45412;-77
2023/10/27 07:43:34;;;;;;;;;4.00;3.00;;;;;23.80;45.26;99218.03;4843877;29;45336;-77
2023/10/27 07:46:00;;;;;;;;;1.67;1.00;;;;;23.69;45.13;99203.72;4843465;29;45281;-76
2023/10/27 07:48:26;;;;;;;;;1.67;0.67;;;;;23.81;45.40;99235.59;4843538;29;45387;-77
2023/10/27 07:50:54;;;;;;;;;1.00;1.00;;;;;23.80;44.95;99231.31;4843652;29;45484;-78
2023/10/27 07:53:19;;;;;;;;;1.67;0.00;;;;;23.65;45.07;99214.00;4843561;29;45553;-78
2023/10/27 07:55:45;;;;;;;;;0.00;0.00;;;;;23.77;45.09;99221.97;4842980;29;46903;-78
2023/10/27 07:58:11;;;;;;;;;2.67;2.00;;;;;23.82;44.53;99229.22;4843613;29;45485;-78
2023/10/27 08:00:37;;;;;;;;;1.00;1.00;;;;;23.66;44.66;99206.81;4843526;29;45293;-78
2023/10/27 08:03:02;;;;;;;;;1.00;1.00;;;;;23.52;45.04;99181.31;4843377;29;45452;-77
2023/10/27 08:05:28;;;;;;;;;1.67;1.00;;;;;23.84;44.79;99221.84;4841869;29;46292;-78
2023/10/27 08:07:53;;;;;;;;;0.00;0.00;;;;;23.84;44.88;99227.94;4843105;29;45415;-78
2023/10/27 08:10:20;;;;;;;;;1.00;0.67;;;;;23.67;45.02;99192.53;4842942;29;45475;-78
2023/10/27 08:12:46;;;;;;;;;0.67;0.67;;;;;23.71;44.63;99197.13;4843374;29;45425;-77
2023/10/27 08:15:11;;;;;;;;;1.00;1.00;;;;;23.85;44.77;99216.31;4843169;29;45304;-78
2023/10/27 08:17:36;;;;;;;;;1.67;1.00;;;;;23.67;44.93;99181.91;4843112;29;45353;-77
2023/10/27 08:20:03;;;;;;;;;1.00;1.00;;;;;23.56;44.89;99160.44;4843367;29;45466;-78
2023/10/27 08:22:29;;;;;;;;;1.67;0.00;;;;;23.84;44.85;99193.44;4843080;29;45402;-78
2023/10/27 08:24:55;;;;;;;;;1.00;1.00;;;;;23.74;44.51;99175.44;4842281;29;47028;-78
2023/10/27 08:27:22;;;;;;;;;1.33;0.00;;;;;23.82;45.12;99192.03;4846710;29;45319;-78
2023/10/27 08:29:47;;;;;;;;;1.33;1.00;;;;;23.87;44.94;99200.13;4849285;29;45349;-77
2023/10/27 08:32:14;;;;;;;;;0.67;0.67;;;;;23.84;44.67;99195.28;4849254;29;45586;-77
2023/10/27 08:34:39;;;;;;;;;3.67;1.00;;;;;23.89;44.82;99202.56;4849074;29;46179;-77
2023/10/27 08:37:04;;;;;;;;;1.00;1.00;;;;;23.90;44.74;99210.28;4848909;29;45289;-77
2023/10/27 08:39:33;;;;;;;;;0.67;0.33;;;;;23.88;44.62;99212.38;4849003;29;45357;-77
2023/10/27 08:41:58;;;;;;;;;2.00;1.00;;;;;23.90;44.61;99212.94;4849251;29;45388;-77
2023/10/27 08:44:26;;;;;;;;;1.00;1.00;;;;;23.76;44.76;99204.41;4849055;29;46257;-77
2023/10/27 08:46:53;;;;;;;;;0.00;0.00;;;;;23.82;44.50;99222.06;4849504;29;45351;-77
2023/10/27 08:49:18;;;;;;;;;1.00;1.00;;;;;23.91;44.25;99238.47;4848974;29;45402;-77
2023/10/27 08:51:44;;;;;;;;;0.00;0.00;;;;;23.92;44.36;99233.94;4849156;29;45488;-77
2023/10/27 08:54:10;;;;;;;;;2.00;1.00;;;;;23.76;44.47;99207.06;4848594;29;46441;-78
2023/10/27 08:56:37;;;;;;;;;1.00;1.00;;;;;23.79;44.41;99205.78;4847588;29;45867;-77
2023/10/27 08:59:05;;;;;;;;;1.00;1.00;;;;;23.95;44.55;99236.97;4849138;29;45318;-77
2023/10/27 09:01:30;;;;;;;;;1.00;1.00;;;;;23.91;44.57;99230.50;4848805;29;45618;-76
2023/10/27 09:04:25;;;;;;;;;2.00;0.67;;;;;23.97;44.64;99236.72;4848668;29;46174;-77
2023/10/27 09:06:50;;;;;;;;;1.00;1.00;;;;;23.98;44.67;99224.25;4843800;29;45456;-77
2023/10/27 09:09:16;;;;;;;;;1.00;0.00;;;;;23.96;44.70;99222.66;4848707;29;45331;-77
2023/10/27 09:11:43;;;;;;;;;0.00;0.00;;;;;23.96;44.66;99220.00;4848890;29;45380;-77
2023/10/27 09:14:23;;;;;;;;;1.33;1.33;;;;;23.85;44.76;99208.34;4848778;29;46360;-76
2023/10/27 09:16:48;;;;;;;;;1.00;1.00;;;;;24.00;45.00;99228.28;4848528;29;45369;-77
2023/10/27 09:19:22;;;;;;;;;2.00;1.00;;;;;24.01;45.08;99223.78;4847258;29;45458;-77
2023/10/27 09:21:47;;;;;;;;;1.00;1.00;;;;;24.02;44.78;99234.16;4848220;29;45370;-77
2023/10/27 09:24:26;;;;;;;;;3.33;1.00;;;;;23.89;44.97;99221.94;4848206;29;46240;-77
2023/10/27 09:26:53;;;;;;;;;0.00;0.00;;;;;23.74;44.62;99206.50;4848743;29;45602;-78
2023/10/27 09:29:20;;;;;;;;;0.00;0.00;;;;;24.02;44.79;99250.09;4848492;29;45468;-78
2023/10/27 09:31:45;;;;;;;;;1.00;1.00;;;;;24.03;44.93;99257.06;4848497;29;45448;-77
2023/10/27 09:34:18;;;;;;;;;0.00;0.00;;;;;24.03;44.89;99261.56;4848224;29;47017;-75
2023/10/27 09:36:56;;;;;;;;;2.00;0.00;;;;;23.98;44.66;99248.97;4848155;29;45378;-76
2023/10/27 09:39:23;;;;;;;;;1.00;1.00;;;;;24.04;44.62;99265.84;4844733;29;45338;-76
2023/10/27 09:41:58;;;;;;;;;1.00;1.00;;;;;23.94;44.83;99250.50;4845319;29;45602;-76
2023/10/27 09:44:33;;;;;;;;;1.33;1.00;;;;;23.90;44.68;99247.47;4845089;29;47031;-76
2023/10/27 09:47:02;;;;;;;;;1.33;1.00;;;;;24.02;44.51;99262.59;4845141;29;45336;-77
2023/10/27 09:49:40;;;;;;;;;2.67;1.00;;;;;23.88;44.86;99235.47;4843967;29;45387;-76
2023/10/27 09:52:11;;;;;;;;;0.00;0.00;;;;;23.92;44.61;99253.34;4844801;29;45542;-76
2023/10/27 09:54:38;;;;;;;;;1.00;0.67;;;;;24.05;44.76;99270.91;4844938;29;46106;-76
2023/10/27 09:57:04;;;;;;;;;1.00;1.00;;;;;23.93;44.71;99251.50;4844925;29;45301;-76
2023/10/27 09:59:30;;;;;;;;;0.33;0.33;;;;;24.02;44.78;99258.06;4845086;29;45332;-77
2023/10/27 10:02:02;;;;;;;;;0.00;0.00;;;;;24.01;44.78;99255.66;4845089;29;45485;-77
2023/10/27 10:04:53;;;;;;;;;1.00;1.00;;;;;24.07;44.89;99263.50;4844806;29;47610;-76
2023/10/27 10:07:31;;;;;;;;;1.00;0.67;;;;;24.07;44.93;99265.38;4844896;29;45362;-76
2023/10/27 10:09:58;;;;;;;;;2.00;1.33;;;;;23.84;44.64;99227.13;4844726;29;45369;-76
2023/10/27 10:12:23;;;;;;;;;1.00;1.00;;;;;24.07;44.58;99254.75;4844979;29;45373;-76
2023/10/27 10:14:50;;;;;;;;;1.00;1.00;;;;;23.98;44.35;99242.84;4844707;29;46173;-76
2023/10/27 10:17:40;;;;;;;;;2.00;1.00;;;;;24.07;44.58;99255.53;4844745;29;45478;-76
2023/10/27 10:20:09;;;;;;;;;0.00;0.00;;;;;23.92;44.50;99234.75;4843267;29;45317;-76
2023/10/27 10:22:37;;;;;;;;;0.67;0.67;;;;;24.09;44.27;99249.19;4844530;29;45452;-78
2023/10/27 10:25:14;;;;;;;;;3.00;1.00;;;;;24.09;44.58;99252.66;4844292;29;46135;-77
2023/10/27 10:28:20;;;;;;;;;0.00;0.00;;;;;24.10;44.67;99248.94;4844654;29;45342;-78
2023/10/27 10:30:47;;;;;;;;;0.00;0.00;;;;;24.11;44.34;99252.41;4844675;29;45270;-78
2023/10/27 10:33:31;;;;;;;;;0.00;0.00;;;;;24.10;44.57;99262.22;4844656;29;45329;-78
2023/10/27 10:36:11;;;;;;;;;1.33;1.00;;;;;24.10;44.79;99248.94;4844062;29;46351;-77
2023/10/27 10:38:38;;;;;;;;;1.33;0.33;;;;;24.08;45.00;99240.41;4844573;29;45457;-77
2023/10/27 10:41:04;;;;;;;;;1.00;1.00;;;;;23.94;44.64;99226.56;4844443;29;45454;-77
2023/10/27 10:43:32;;;;;;;;;1.00;1.00;;;;;24.01;44.49;99226.44;4843245;29;45370;-77
2023/10/27 10:46:00;;;;;;;;;3.00;1.00;;;;;24.10;44.58;99251.59;4844246;29;46239;-78
2023/10/27 10:48:27;;;;;;;;;1.00;1.00;;;;;24.00;44.73;99222.16;4844003;29;45251;-78
2023/10/27 10:50:56;;;;;;;;;1.00;1.00;;;;;24.00;44.72;99227.47;4844115;29;45426;-77
2023/10/27 10:53:24;;;;;;;;;0.33;0.33;;;;;24.04;44.67;99234.78;4844311;29;45343;-77
2023/10/27 10:55:50;;;;;;;;;1.00;1.00;;;;;24.13;44.51;99242.34;4844350;29;46292;-77
2023/10/27 10:58:40;;;;;;;;;0.33;0.33;;;;;24.02;44.59;99228.06;4844218;29;45443;-78
2023/10/27 11:01:18;;;;;;;;;1.00;1.00;;;;;24.07;44.72;99233.50;4844248;29;45208;-78
2023/10/27 11:03:51;;;;;;;;;0.00;0.00;;;;;24.13;44.59;99239.69;4843797;29;45325;-77
2023/10/27 11:06:24;;;;;;;;;1.00;1.00;;;;;24.06;44.61;99239.84;4843960;29;45277;-76
2023/10/27 11:08:49;;;;;;;;;1.00;1.00;;;;;24.11;44.39;99247.09;4843892;29;45432;-76
2023/10/27 11:11:18;;;;;;;;;1.00;1.00;;;;;23.99;44.49;99232.00;4843993;29;45341;-76
2023/10/27 11:13:52;;;;;;;;;0.00;0.00;;;;;24.11;44.72;99249.75;4844099;29;45482;-75
2023/10/27 11:16:22;;;;;;;;;1.00;0.67;;;;;24.05;44.53;99232.91;4843845;29;46292;-77
2023/10/27 11:18:51;;;;;;;;;1.00;1.00;;;;;24.07;45.09;99230.84;4843638;29;45361;-77
2023/10/27 11:21:17;;;;;;;;;1.00;1.00;;;;;24.09;44.95;99228.75;4843983;29;45432;-77
2023/10/27 11:23:43;;;;;;;;;1.67;0.00;;;;;24.11;44.72;99229.31;4843473;29;45242;-78
2023/10/27 11:26:08;;;;;;;;;0.00;0.00;;;;;24.12;44.75;99233.59;4843868;29;46391;-77
2023/10/27 11:28:39;;;;;;;;;0.67;0.67;;;;;23.99;44.94;99213.41;4843695;29;45354;-77
2023/10/27 11:31:09;;;;;;;;;1.67;1.67;;;;;24.11;44.67;99224.00;4843911;29;45349;-77
2023/10/27 11:33:59;;;;;;;;;1.33;1.00;;;;;24.11;44.81;99226.66;4843580;29;45294;-78